createdAt,value
2023-02-08T00:01:48.466Z,102.83
2023-02-08T00:04:14.880Z,103.23
2023-02-08T00:06:41.682Z,97.60
2023-02-08T00:09:09.014Z,98.63
2023-02-08T00:11:35.434Z,94.03
2023-02-08T00:14:01.912Z,95.83
2023-02-08T00:16:29.204Z,91.77
2023-02-08T00:18:56.314Z,97.03
2023-02-08T00:21:22.840Z,90.90
2023-02-08T00:23:49.980Z,94.40
2023-02-08T00:26:17.680Z,99.63
2023-02-08T00:28:50.379Z,88.70
2023-02-08T00:31:17.398Z,99.13
2023-02-08T00:33:44.212Z,88.30
2023-02-08T00:36:11.788Z,97.50
2023-02-08T00:38:38.484Z,92.57
2023-02-08T00:41:05.828Z,87.97
2023-02-08T00:43:33.923Z,92.30
2023-02-08T00:46:00.792Z,98.10
2023-02-08T00:48:28.439Z,96.80
2023-02-08T00:51:09.726Z,93.63
2023-02-08T00:53:37.928Z,98.33
2023-02-08T00:56:05.544Z,96.90
2023-02-08T00:58:32.215Z,91.60
2023-02-08T01:00:59.363Z,91.43
2023-02-08T01:03:25.998Z,93.97
2023-02-08T01:05:54.265Z,93.93
2023-02-08T01:08:21.543Z,92.33
2023-02-08T01:10:49.549Z,104.97
2023-02-08T01:13:16.476Z,92.60
2023-02-08T01:15:43.607Z,91.80
2023-02-08T01:18:10.884Z,91.27
2023-02-08T01:20:37.734Z,99.33
2023-02-08T01:23:04.784Z,93.97
2023-02-08T01:25:32.443Z,88.37
2023-02-08T01:27:59.283Z,88.33
2023-02-08T01:30:26.920Z,95.43
2023-02-08T01:32:53.473Z,91.70
2023-02-08T01:35:19.904Z,86.80
2023-02-08T01:37:46.595Z,90.73
2023-02-08T01:40:14.029Z,88.70
2023-02-08T01:42:40.412Z,95.30
2023-02-08T01:45:25.568Z,91.17
2023-02-08T01:48:03.405Z,92.87
2023-02-08T01:50:39.685Z,88.87
2023-02-08T01:53:08.376Z,88.40
2023-02-08T01:55:39.719Z,86.97
2023-02-08T01:58:09.110Z,90.70
2023-02-08T02:00:35.522Z,85.90
2023-02-08T02:03:04.781Z,90.90
2023-02-08T02:05:39.958Z,86.00
2023-02-08T02:08:07.905Z,87.00
2023-02-08T02:10:36.495Z,85.07
2023-02-08T02:13:07.298Z,85.67
2023-02-08T02:15:34.167Z,87.73
2023-02-08T02:18:02.385Z,84.63
2023-02-08T02:20:39.607Z,87.53
2023-02-08T02:23:28.072Z,85.80
2023-02-08T02:26:16.894Z,92.40
2023-02-08T02:29:13.067Z,86.43
2023-02-08T02:31:54.893Z,85.23
2023-02-08T02:34:46.336Z,90.90
2023-02-08T02:37:37.786Z,88.90
2023-02-08T02:40:43.493Z,91.33
2023-02-08T02:43:33.469Z,84.80
2023-02-08T02:46:28.721Z,87.27
2023-02-08T02:49:15.191Z,87.47
2023-02-08T02:51:58.508Z,86.13
2023-02-08T02:54:49.687Z,84.17
2023-02-08T02:57:20.336Z,89.40
2023-02-08T02:59:47.148Z,85.67
2023-02-08T03:02:14.111Z,85.23
2023-02-08T03:04:40.712Z,90.37
2023-02-08T03:07:19.603Z,93.90
2023-02-08T03:10:04.897Z,85.57
2023-02-08T03:13:09.137Z,82.80
2023-02-08T03:15:54.352Z,84.27
2023-02-08T03:18:48.044Z,86.10
2023-02-08T03:21:38.487Z,87.80
2023-02-08T03:24:23.221Z,90.07
2023-02-08T03:26:58.652Z,81.10
2023-02-08T03:29:49.246Z,85.47
2023-02-08T03:32:39.087Z,84.83
2023-02-08T03:35:10.704Z,86.07
2023-02-08T03:37:44.411Z,85.87
2023-02-08T03:40:18.731Z,82.07
2023-02-08T03:42:46.712Z,80.90
2023-02-08T03:45:36.512Z,83.10
2023-02-08T03:48:05.279Z,83.43
2023-02-08T03:50:34.749Z,86.57
2023-02-08T03:53:02.125Z,78.60
2023-02-08T03:55:31.464Z,84.63
2023-02-08T03:58:06.301Z,86.07
2023-02-08T04:00:37.090Z,81.43
2023-02-08T04:03:12.388Z,84.17
2023-02-08T04:05:38.882Z,84.37
2023-02-08T04:08:05.484Z,82.23
2023-02-08T04:10:31.939Z,84.77
2023-02-08T04:12:58.797Z,79.07
2023-02-08T04:15:27.525Z,84.33
2023-02-08T04:17:55.062Z,80.53
2023-02-08T04:20:21.718Z,83.50
2023-02-08T04:22:48.459Z,74.37
2023-02-08T04:25:15.046Z,81.07
2023-02-08T04:27:41.551Z,80.33
2023-02-08T04:30:08.570Z,87.40
2023-02-08T04:32:35.037Z,81.87
2023-02-08T04:35:01.480Z,80.13
2023-02-08T04:37:28.169Z,81.43
2023-02-08T04:39:54.573Z,79.97
2023-02-08T04:42:21.237Z,74.83
2023-02-08T04:44:48.033Z,84.40
2023-02-08T04:47:14.366Z,84.10
2023-02-08T04:49:41.051Z,82.53
2023-02-08T04:52:07.506Z,83.83
2023-02-08T04:54:34.170Z,80.83
2023-02-08T04:57:05.851Z,78.70
2023-02-08T04:59:32.453Z,78.73
2023-02-08T05:01:59.038Z,78.50
2023-02-08T05:04:25.465Z,77.33
2023-02-08T05:06:51.913Z,81.13
2023-02-08T05:09:19.400Z,78.30
2023-02-08T05:11:45.838Z,83.37
2023-02-08T05:14:12.279Z,88.60
2023-02-08T05:16:38.700Z,80.30
2023-02-08T05:19:05.173Z,79.60
2023-02-08T05:21:31.668Z,77.60
2023-02-08T05:23:58.117Z,79.87
2023-02-08T05:26:25.720Z,83.20
2023-02-08T05:28:52.226Z,85.97
2023-02-08T05:31:24.169Z,77.37
2023-02-08T05:33:51.850Z,80.40
2023-02-08T05:36:19.479Z,78.90
2023-02-08T05:38:45.923Z,75.23
2023-02-08T05:41:12.409Z,80.53
2023-02-08T05:43:39.052Z,77.20
2023-02-08T05:46:05.622Z,73.10
2023-02-08T05:48:32.283Z,78.13
2023-02-08T05:50:59.480Z,78.57
2023-02-08T05:53:26.176Z,78.67
2023-02-08T05:55:52.943Z,81.33
2023-02-08T05:58:19.532Z,81.43
2023-02-08T06:00:46.221Z,80.40
2023-02-08T06:03:12.812Z,82.03
2023-02-08T06:05:40.569Z,87.00
2023-02-08T06:08:07.358Z,88.33
2023-02-08T06:10:33.941Z,84.40
2023-02-08T06:13:01.534Z,78.10
2023-02-08T06:15:28.300Z,77.10
2023-02-08T06:17:59.147Z,80.37
2023-02-08T06:20:25.638Z,84.77
2023-02-08T06:22:52.117Z,91.80
2023-02-08T06:25:18.593Z,83.10
2023-02-08T06:27:45.400Z,84.63
2023-02-08T06:30:12.192Z,88.90
2023-02-08T06:32:38.950Z,83.40
2023-02-08T06:35:05.664Z,84.27
2023-02-08T06:37:32.095Z,86.53
2023-02-08T06:39:59.052Z,80.33
2023-02-08T06:42:28.969Z,79.03
2023-02-08T06:44:56.026Z,93.67
2023-02-08T06:47:23.262Z,89.93
2023-02-08T06:50:04.264Z,86.43
2023-02-08T06:52:30.965Z,87.63
2023-02-08T06:54:57.407Z,95.93
2023-02-08T06:57:24.325Z,95.83
2023-02-08T06:59:59.726Z,101.77
2023-02-08T07:02:26.470Z,99.10
2023-02-08T07:04:53.664Z,86.93
2023-02-08T07:07:20.186Z,94.70
2023-02-08T07:09:46.941Z,106.57
2023-02-08T07:12:13.459Z,147.30
2023-02-08T07:14:41.524Z,158.03
2023-02-08T07:17:08.037Z,123.20
2023-02-08T07:19:34.446Z,80.97
2023-02-08T07:22:07.247Z,80.60
2023-02-08T07:24:38.840Z,81.07
2023-02-08T07:27:06.958Z,70.30
2023-02-08T07:29:33.896Z,66.33
2023-02-08T07:32:01.491Z,75.77
2023-02-08T07:34:33.063Z,70.53
2023-02-08T07:36:59.510Z,74.40
2023-02-08T07:39:26.364Z,78.30
2023-02-08T07:41:53.218Z,73.50
2023-02-08T07:44:19.685Z,68.67
2023-02-08T07:46:46.198Z,68.63
2023-02-08T07:49:12.654Z,69.80
2023-02-08T07:51:39.065Z,66.80
2023-02-08T07:54:05.491Z,62.77
2023-02-08T07:56:32.083Z,65.03
2023-02-08T07:58:58.527Z,63.30
2023-02-08T08:01:25.030Z,60.87
2023-02-08T08:03:52.019Z,68.40
2023-02-08T08:06:19.889Z,63.70
2023-02-08T08:08:47.751Z,60.83
2023-02-08T08:11:15.453Z,66.20
2023-02-08T08:13:42.169Z,64.97
2023-02-08T08:16:08.841Z,66.77
2023-02-08T08:18:36.075Z,64.30
2023-02-08T08:21:03.165Z,63.27
2023-02-08T08:23:29.930Z,69.73
2023-02-08T08:25:56.432Z,68.30
2023-02-08T08:28:23.119Z,62.30
2023-02-08T08:30:49.764Z,68.47
2023-02-08T08:33:16.315Z,75.00
2023-02-08T08:35:43.895Z,69.07
2023-02-08T08:38:10.707Z,66.97
2023-02-08T08:40:37.369Z,68.47
2023-02-08T08:43:03.959Z,67.53
2023-02-08T08:45:30.371Z,64.17
2023-02-08T08:47:56.901Z,65.17
2023-02-08T08:50:23.453Z,63.23
2023-02-08T08:52:49.898Z,61.93
2023-02-08T08:55:16.617Z,58.63
2023-02-08T08:57:43.356Z,62.73
2023-02-08T09:00:10.835Z,54.70
2023-02-08T09:02:37.622Z,53.53
2023-02-08T09:05:05.496Z,56.17
2023-02-08T09:07:32.973Z,54.90
2023-02-08T09:09:59.416Z,42.63
2023-02-08T09:12:25.812Z,55.40
2023-02-08T09:14:52.347Z,55.83
2023-02-08T09:17:19.109Z,53.93
2023-02-08T09:19:47.227Z,54.47
2023-02-08T09:22:14.087Z,51.50
2023-02-08T09:24:40.848Z,56.03
2023-02-08T09:27:07.358Z,53.57
2023-02-08T09:29:34.396Z,54.60
2023-02-08T09:32:01.424Z,48.03
2023-02-08T09:34:28.016Z,51.30
2023-02-08T09:36:54.785Z,43.53
2023-02-08T09:39:23.785Z,51.27
2023-02-08T09:42:28.225Z,50.63
2023-02-08T09:45:07.137Z,52.70
2023-02-08T09:47:44.786Z,49.40
2023-02-08T09:50:19.830Z,39.33
2023-02-08T09:53:02.671Z,45.73
2023-02-08T09:55:39.775Z,51.77
2023-02-08T09:58:19.988Z,44.83
2023-02-08T10:00:48.837Z,46.87
2023-02-08T10:03:25.000Z,51.57
2023-02-08T10:05:51.442Z,48.30
2023-02-08T10:08:17.984Z,47.07
2023-02-08T10:10:55.557Z,47.13
2023-02-08T10:13:41.143Z,41.17
2023-02-08T10:16:17.581Z,43.37
2023-02-08T10:19:01.436Z,45.10
2023-02-08T10:21:38.549Z,39.73
2023-02-08T10:24:25.936Z,49.10
2023-02-08T10:27:11.237Z,47.50
2023-02-08T10:29:52.613Z,48.30
2023-02-08T10:32:35.606Z,50.37
2023-02-08T10:35:07.447Z,33.37
2023-02-08T10:37:35.513Z,47.77
2023-02-08T10:40:26.482Z,47.43
2023-02-08T10:43:19.623Z,45.43
2023-02-08T10:45:53.209Z,46.13
2023-02-08T10:48:50.019Z,48.00
2023-02-08T10:51:18.615Z,48.47
2023-02-08T10:53:45.612Z,43.43
2023-02-08T10:56:43.842Z,45.90
2023-02-08T10:59:16.694Z,44.60
2023-02-08T11:01:45.418Z,43.67
2023-02-08T11:04:12.885Z,39.67
2023-02-08T11:06:41.265Z,43.67
2023-02-08T11:09:23.441Z,40.53
2023-02-08T11:11:53.182Z,37.23
2023-02-08T11:14:47.155Z,41.17
2023-02-08T11:17:29.827Z,34.97
2023-02-08T11:19:56.999Z,40.93
2023-02-08T11:22:25.162Z,45.10
2023-02-08T11:24:57.718Z,45.73
2023-02-08T11:27:36.291Z,39.30
2023-02-08T11:30:24.161Z,41.07
2023-02-08T11:33:18.577Z,42.67
2023-02-08T11:35:53.968Z,40.90
2023-02-08T11:38:27.279Z,42.30
2023-02-08T11:40:56.750Z,48.20
2023-02-08T11:43:29.711Z,46.70
2023-02-08T11:45:57.910Z,43.50
2023-02-08T11:48:38.662Z,41.67
2023-02-08T11:51:05.858Z,40.23
2023-02-08T11:53:46.850Z,39.13
2023-02-08T11:56:25.434Z,40.00
2023-02-08T11:59:14.847Z,38.07
2023-02-08T12:01:42.292Z,42.83
2023-02-08T12:04:11.280Z,38.00
2023-02-08T12:06:56.623Z,39.53
2023-02-08T12:10:02.084Z,40.10
2023-02-08T12:13:07.101Z,39.47
2023-02-08T12:15:58.255Z,39.67
2023-02-08T12:18:38.433Z,44.43
2023-02-08T12:21:23.191Z,39.60
2023-02-08T12:24:03.388Z,39.23
2023-02-08T12:26:54.926Z,38.27
2023-02-08T12:29:47.802Z,40.37
2023-02-08T12:32:43.212Z,38.83
2023-02-08T12:36:01.560Z,37.23
2023-02-08T12:39:18.568Z,35.83
2023-02-08T12:42:14.771Z,31.70
2023-02-08T12:45:18.630Z,35.70
2023-02-08T12:48:10.059Z,34.40
2023-02-08T12:50:56.721Z,33.73
2023-02-08T12:53:40.335Z,35.93
2023-02-08T12:56:13.254Z,44.17
2023-02-08T12:58:48.158Z,40.73
2023-02-08T13:01:23.303Z,37.43
2023-02-08T13:04:12.187Z,33.47
2023-02-08T13:06:43.778Z,35.77
2023-02-08T13:09:36.371Z,33.67
2023-02-08T13:12:08.731Z,32.77
2023-02-08T13:14:39.133Z,35.60
2023-02-08T13:17:30.142Z,33.47
2023-02-08T13:20:05.702Z,32.57
2023-02-08T13:22:35.930Z,30.47
2023-02-08T13:25:07.980Z,32.40
2023-02-08T13:27:35.034Z,27.87
2023-02-08T13:30:01.836Z,29.53
2023-02-08T13:32:30.499Z,31.10
2023-02-08T13:35:01.343Z,28.77
2023-02-08T13:37:31.702Z,32.97
2023-02-08T13:40:01.360Z,33.27
2023-02-08T13:42:38.262Z,33.07
2023-02-08T13:45:06.438Z,33.60
2023-02-08T13:47:42.687Z,30.87
2023-02-08T13:50:29.232Z,29.47
2023-02-08T13:52:56.108Z,33.87
2023-02-08T13:55:29.001Z,29.83
2023-02-08T13:57:57.863Z,31.33
2023-02-08T14:00:35.539Z,33.27
2023-02-08T14:03:20.700Z,32.90
2023-02-08T14:05:53.989Z,30.03
2023-02-08T14:08:30.634Z,29.50
2023-02-08T14:11:17.376Z,37.97
2023-02-08T14:13:52.472Z,32.37
2023-02-08T14:16:26.461Z,29.17
2023-02-08T14:18:54.835Z,30.67
2023-02-08T14:21:38.230Z,33.73
2023-02-08T14:24:17.394Z,32.43
2023-02-08T14:26:44.899Z,34.10
2023-02-08T14:29:21.700Z,33.97
2023-02-08T14:31:48.364Z,33.17
2023-02-08T14:34:35.637Z,31.27
2023-02-08T14:37:26.659Z,31.80
2023-02-08T14:40:21.286Z,17.43
2023-02-08T14:43:19.710Z,26.70
2023-02-08T14:45:48.681Z,29.83
2023-02-08T14:48:24.282Z,27.30
2023-02-08T14:50:54.076Z,29.23
2023-02-08T14:53:33.824Z,27.17
2023-02-08T14:56:13.644Z,28.87
2023-02-08T14:58:42.429Z,31.30
2023-02-08T15:01:27.636Z,26.80
2023-02-08T15:04:01.822Z,29.87
2023-02-08T15:06:34.799Z,35.30
2023-02-08T15:09:01.428Z,34.30
2023-02-08T15:11:33.427Z,31.13
2023-02-08T15:14:02.242Z,29.37
2023-02-08T15:16:35.592Z,27.23
2023-02-08T15:19:04.341Z,30.13
2023-02-08T15:21:32.409Z,32.70
2023-02-08T15:24:14.500Z,32.17
2023-02-08T15:26:53.480Z,33.50
2023-02-08T15:29:32.703Z,39.50
2023-02-08T15:32:02.303Z,43.77
2023-02-08T15:34:28.670Z,43.80
2023-02-08T15:36:56.469Z,37.43
2023-02-08T15:39:34.727Z,36.50
2023-02-08T15:42:02.220Z,28.50
2023-02-08T15:44:30.580Z,36.67
2023-02-08T15:47:02.965Z,30.03
2023-02-08T15:49:39.468Z,32.80
2023-02-08T15:52:06.651Z,36.83
2023-02-08T15:54:33.246Z,34.40
2023-02-08T15:57:07.872Z,31.57
2023-02-08T15:59:37.690Z,37.43
2023-02-08T16:02:21.026Z,34.83
2023-02-08T16:04:47.478Z,33.90
2023-02-08T16:07:27.317Z,34.90
2023-02-08T16:09:54.599Z,33.93
2023-02-08T16:12:23.265Z,33.37
2023-02-08T16:14:52.745Z,33.27
2023-02-08T16:17:33.354Z,33.10
2023-02-08T16:19:59.732Z,36.37
2023-02-08T16:22:31.055Z,35.33
2023-02-08T16:25:23.460Z,32.40
2023-02-08T16:27:49.917Z,30.10
2023-02-08T16:30:21.168Z,35.60
2023-02-08T16:32:48.613Z,31.10
2023-02-08T16:35:22.121Z,32.00
2023-02-08T16:37:54.563Z,31.50
2023-02-08T16:40:57.998Z,34.23
2023-02-08T16:43:29.732Z,35.33
2023-02-08T16:46:11.494Z,36.00
2023-02-08T16:48:52.981Z,35.40
2023-02-08T16:51:28.182Z,37.80
2023-02-08T16:53:56.785Z,36.47
2023-02-08T16:56:27.474Z,35.07
2023-02-08T16:58:53.931Z,37.73
2023-02-08T17:01:23.043Z,40.03
2023-02-08T17:03:50.298Z,41.37
2023-02-08T17:06:25.408Z,41.13
2023-02-08T17:08:52.113Z,43.37
2023-02-08T17:11:18.646Z,41.47
2023-02-08T17:13:45.305Z,37.20
2023-02-08T17:16:18.190Z,39.50
2023-02-08T17:18:49.287Z,44.30
2023-02-08T17:21:16.421Z,42.40
2023-02-08T17:23:43.955Z,43.60
2023-02-08T17:26:20.383Z,38.77
2023-02-08T17:28:46.771Z,40.13
2023-02-08T17:31:14.346Z,43.80
2023-02-08T17:33:41.380Z,45.10
2023-02-08T17:36:10.366Z,41.20
2023-02-08T17:38:40.323Z,40.87
2023-02-08T17:41:10.149Z,39.90
2023-02-08T17:43:37.477Z,41.20
2023-02-08T17:46:11.329Z,41.57
2023-02-08T17:48:37.726Z,39.83
2023-02-08T17:51:16.142Z,45.27
2023-02-08T17:53:43.859Z,45.77
2023-02-08T17:56:13.263Z,45.30
2023-02-08T17:58:40.865Z,40.90
2023-02-08T18:01:17.654Z,47.77
2023-02-08T18:03:45.234Z,40.63
2023-02-08T18:06:12.001Z,43.07
2023-02-08T18:08:39.181Z,46.17
2023-02-08T18:11:12.616Z,42.30
2023-02-08T18:13:41.813Z,45.40
2023-02-08T18:16:14.599Z,46.73
2023-02-08T18:18:41.061Z,43.13
2023-02-08T18:21:13.230Z,44.63
2023-02-08T18:23:40.163Z,46.10
2023-02-08T18:26:08.618Z,43.53
2023-02-08T18:28:35.180Z,45.33
2023-02-08T18:31:03.812Z,43.47
2023-02-08T18:33:30.665Z,46.23
2023-02-08T18:35:57.064Z,47.00
2023-02-08T18:38:23.648Z,42.77
2023-02-08T18:40:50.071Z,49.03
2023-02-08T18:43:17.881Z,47.83
2023-02-08T18:45:45.982Z,41.83
2023-02-08T18:48:12.736Z,47.07
2023-02-08T18:50:39.121Z,46.30
2023-02-08T18:53:05.504Z,44.50
2023-02-08T18:55:32.284Z,46.53
2023-02-08T18:57:58.608Z,47.07
2023-02-08T19:00:25.098Z,47.50
2023-02-08T19:02:51.851Z,45.43
2023-02-08T19:05:18.333Z,46.30
2023-02-08T19:07:46.575Z,47.53
2023-02-08T19:10:13.004Z,46.47
2023-02-08T19:12:39.693Z,42.73
2023-02-08T19:15:06.768Z,40.37
2023-02-08T19:17:33.485Z,39.03
2023-02-08T19:19:59.888Z,44.57
2023-02-08T19:22:26.453Z,39.30
2023-02-08T19:24:59.433Z,45.90
2023-02-08T19:27:27.110Z,42.60
2023-02-08T19:29:58.625Z,44.73
2023-02-08T19:32:25.063Z,42.00
2023-02-08T19:34:51.548Z,40.80
2023-02-08T19:37:19.036Z,42.23
2023-02-08T19:39:45.827Z,44.30
2023-02-08T19:42:12.385Z,42.93
2023-02-08T19:44:38.822Z,43.43
2023-02-08T19:47:06.014Z,44.47
2023-02-08T19:49:32.472Z,45.07
2023-02-08T19:51:59.011Z,44.57
2023-02-08T19:54:25.612Z,44.13
2023-02-08T19:56:54.705Z,45.67
2023-02-08T19:59:26.691Z,43.37
2023-02-08T20:01:55.352Z,43.13
2023-02-08T20:04:22.216Z,45.07
2023-02-08T20:06:51.299Z,45.20
2023-02-08T20:09:17.726Z,44.93
2023-02-08T20:11:56.316Z,43.03
2023-02-08T20:14:24.090Z,42.60
2023-02-08T20:16:50.565Z,41.77
2023-02-08T20:19:17.122Z,40.77
2023-02-08T20:21:45.306Z,40.20
2023-02-08T20:24:12.107Z,35.57
2023-02-08T20:26:49.908Z,42.67
2023-02-08T20:29:17.280Z,37.73
2023-02-08T20:31:47.464Z,35.73
2023-02-08T20:34:15.072Z,39.57
2023-02-08T20:37:04.464Z,37.03
2023-02-08T20:39:32.635Z,38.57
2023-02-08T20:41:59.310Z,36.57
2023-02-08T20:44:25.752Z,38.17
2023-02-08T20:46:54.572Z,38.47
2023-02-08T20:49:25.294Z,33.33
2023-02-08T20:51:53.642Z,35.50
2023-02-08T20:54:20.138Z,34.77
2023-02-08T20:56:46.570Z,35.33
2023-02-08T20:59:15.676Z,33.87
2023-02-08T21:01:44.044Z,34.20
2023-02-08T21:04:11.597Z,34.90
2023-02-08T21:06:38.491Z,31.83
2023-02-08T21:09:11.768Z,31.07
2023-02-08T21:11:38.327Z,31.10
2023-02-08T21:14:07.715Z,29.67
2023-02-08T21:16:34.214Z,28.23
2023-02-08T21:19:00.758Z,27.63
2023-02-08T21:21:29.430Z,28.90
2023-02-08T21:23:58.041Z,31.83
2023-02-08T21:26:25.389Z,28.63
2023-02-08T21:28:53.290Z,25.73
2023-02-08T21:31:22.045Z,29.17
2023-02-08T21:33:49.280Z,27.50
2023-02-08T21:36:19.010Z,29.77
2023-02-08T21:38:46.265Z,25.10
2023-02-08T21:41:24.803Z,22.63
2023-02-08T21:43:53.692Z,18.67
2023-02-08T21:46:20.568Z,21.97
2023-02-08T21:49:06.166Z,28.43
2023-02-08T21:51:51.627Z,25.40
2023-02-08T21:54:40.423Z,24.80
2023-02-08T21:57:15.927Z,13.73
2023-02-08T21:59:42.978Z,26.23
2023-02-08T22:02:23.010Z,21.17
2023-02-08T22:05:08.945Z,22.07
2023-02-08T22:07:44.446Z,22.40
2023-02-08T22:10:14.546Z,18.70
2023-02-08T22:12:42.098Z,21.43
2023-02-08T22:15:10.776Z,16.73
2023-02-08T22:17:37.172Z,23.07
2023-02-08T22:20:04.418Z,20.37
2023-02-08T22:22:31.543Z,18.47
2023-02-08T22:24:58.158Z,22.37
2023-02-08T22:27:24.618Z,20.30
2023-02-08T22:29:52.056Z,19.53
2023-02-08T22:32:18.504Z,21.37
2023-02-08T22:34:48.482Z,21.77
2023-02-08T22:37:16.160Z,21.33
2023-02-08T22:39:42.914Z,22.03
2023-02-08T22:42:13.245Z,26.90
2023-02-08T22:44:41.130Z,23.93
2023-02-08T22:47:08.545Z,22.83
2023-02-08T22:49:45.297Z,21.87
2023-02-08T22:52:12.154Z,21.30
2023-02-08T22:54:38.750Z,20.40
2023-02-08T22:57:06.275Z,21.37
2023-02-08T22:59:34.374Z,20.40
2023-02-08T23:02:01.712Z,20.47
2023-02-08T23:04:28.572Z,20.23
2023-02-08T23:06:55.863Z,22.30
2023-02-08T23:09:23.472Z,22.47
2023-02-08T23:11:49.946Z,20.80
2023-02-08T23:14:16.593Z,20.33
2023-02-08T23:16:43.085Z,18.97
2023-02-08T23:19:18.249Z,20.17
2023-02-08T23:21:44.994Z,22.03
2023-02-08T23:24:12.225Z,22.03
2023-02-08T23:26:39.097Z,21.20
2023-02-08T23:29:05.599Z,19.17
2023-02-08T23:31:32.196Z,25.03
2023-02-08T23:34:00.425Z,18.73
2023-02-08T23:36:27.097Z,22.07
2023-02-08T23:38:56.684Z,21.57
2023-02-08T23:41:24.142Z,20.73
2023-02-08T23:43:52.108Z,23.43
2023-02-08T23:46:21.908Z,24.77
2023-02-08T23:48:49.061Z,23.20
2023-02-08T23:51:17.448Z,21.87
2023-02-08T23:53:44.562Z,24.93
2023-02-08T23:56:18.106Z,21.20
2023-02-08T23:58:46.609Z,23.87
